sensor_id;sensor_type;location;lat;lon;timestamp;temperature;humidity
42099;DHT22;27758;55.900;8.516;2022-07-06T00:01:41;13.60;99.90
42099;DHT22;27758;55.900;8.516;2022-07-06T00:04:07;13.60;99.90
42099;DHT22;27758;55.900;8.516;2022-07-06T00:06:33;13.50;99.90
42099;DHT22;27758;55.900;8.516;2022-07-06T00:08:59;13.60;99.90
42099;DHT22;27758;55.900;8.516;2022-07-06T00:11:25;13.60;99.90
42099;DHT22;27758;55.900;8.516;2022-07-06T00:13:51;13.50;99.90
42099;DHT22;27758;55.900;8.516;2022-07-06T00:16:18;13.50;99.90
42099;DHT22;27758;55.900;8.516;2022-07-06T00:18:44;13.50;99.90
42099;DHT22;27758;55.900;8.516;2022-07-06T00:21:10;13.50;99.90
42099;DHT22;27758;55.900;8.516;2022-07-06T00:23:35;13.50;99.90
42099;DHT22;27758;55.900;8.516;2022-07-06T00:26:02;13.50;99.90
42099;DHT22;27758;55.900;8.516;2022-07-06T00:28:28;13.50;99.90
42099;DHT22;27758;55.900;8.516;2022-07-06T00:30:54;13.50;99.90
42099;DHT22;27758;55.900;8.516;2022-07-06T00:33:21;13.50;99.90
42099;DHT22;27758;55.900;8.516;2022-07-06T00:35:47;13.50;99.90
42099;DHT22;27758;55.900;8.516;2022-07-06T00:38:13;13.50;99.90
42099;DHT22;27758;55.900;8.516;2022-07-06T00:40:39;13.40;99.90
42099;DHT22;27758;55.900;8.516;2022-07-06T00:43:05;13.40;99.90
42099;DHT22;27758;55.900;8.516;2022-07-06T00:45:31;13.40;99.90
42099;DHT22;27758;55.900;8.516;2022-07-06T00:47:57;13.40;99.90
42099;DHT22;27758;55.900;8.516;2022-07-06T00:50:23;13.40;99.90
42099;DHT22;27758;55.900;8.516;2022-07-06T00:52:55;13.40;99.90
42099;DHT22;27758;55.900;8.516;2022-07-06T00:55:23;13.40;99.90
42099;DHT22;27758;55.900;8.516;2022-07-06T00:57:49;13.40;99.90
42099;DHT22;27758;55.900;8.516;2022-07-06T01:00:17;13.40;99.90
42099;DHT22;27758;55.900;8.516;2022-07-06T01:02:44;13.40;99.90
42099;DHT22;27758;55.900;8.516;2022-07-06T01:05:11;13.40;99.90
42099;DHT22;27758;55.900;8.516;2022-07-06T01:07:39;13.40;99.90
42099;DHT22;27758;55.900;8.516;2022-07-06T01:10:07;13.40;99.90
42099;DHT22;27758;55.900;8.516;2022-07-06T01:12:37;13.40;99.90
42099;DHT22;27758;55.900;8.516;2022-07-06T01:15:04;13.40;99.90
42099;DHT22;27758;55.900;8.516;2022-07-06T01:17:31;13.40;99.90
42099;DHT22;27758;55.900;8.516;2022-07-06T01:19:57;13.30;99.90
42099;DHT22;27758;55.900;8.516;2022-07-06T01:22:23;13.30;99.90
42099;DHT22;27758;55.900;8.516;2022-07-06T01:24:49;13.30;99.90
42099;DHT22;27758;55.900;8.516;2022-07-06T01:27:15;13.30;99.90
42099;DHT22;27758;55.900;8.516;2022-07-06T01:29:41;13.20;99.90
42099;DHT22;27758;55.900;8.516;2022-07-06T01:32:07;13.30;99.90
42099;DHT22;27758;55.900;8.516;2022-07-06T01:34:33;13.20;99.90
42099;DHT22;27758;55.900;8.516;2022-07-06T01:36:59;13.20;99.90
42099;DHT22;27758;55.900;8.516;2022-07-06T01:39:25;13.20;99.90
42099;DHT22;27758;55.900;8.516;2022-07-06T01:41:51;13.20;99.90
42099;DHT22;27758;55.900;8.516;2022-07-06T01:44:17;13.20;99.90
42099;DHT22;27758;55.900;8.516;2022-07-06T01:46:43;13.20;99.90
42099;DHT22;27758;55.900;8.516;2022-07-06T01:49:09;13.20;99.90
42099;DHT22;27758;55.900;8.516;2022-07-06T01:51:35;13.20;99.90
42099;DHT22;27758;55.900;8.516;2022-07-06T01:54:01;13.20;99.90
42099;DHT22;27758;55.900;8.516;2022-07-06T01:56:27;13.20;99.90
42099;DHT22;27758;55.900;8.516;2022-07-06T01:58:52;13.20;99.90
42099;DHT22;27758;55.900;8.516;2022-07-06T02:01:20;13.20;99.90
42099;DHT22;27758;55.900;8.516;2022-07-06T02:03:46;13.30;99.90
42099;DHT22;27758;55.900;8.516;2022-07-06T02:06:12;13.30;99.90
42099;DHT22;27758;55.900;8.516;2022-07-06T02:08:39;13.30;99.90
42099;DHT22;27758;55.900;8.516;2022-07-06T02:11:09;13.30;99.90
42099;DHT22;27758;55.900;8.516;2022-07-06T02:13:35;13.40;99.90
42099;DHT22;27758;55.900;8.516;2022-07-06T02:16:02;13.30;99.90
42099;DHT22;27758;55.900;8.516;2022-07-06T02:18:28;13.30;99.90
42099;DHT22;27758;55.900;8.516;2022-07-06T02:20:54;13.30;99.90
42099;DHT22;27758;55.900;8.516;2022-07-06T02:23:20;13.30;99.90
42099;DHT22;27758;55.900;8.516;2022-07-06T02:25:47;13.30;99.90
42099;DHT22;27758;55.900;8.516;2022-07-06T02:28:12;13.20;99.90
42099;DHT22;27758;55.900;8.516;2022-07-06T02:30:38;13.30;99.90
42099;DHT22;27758;55.900;8.516;2022-07-06T02:33:04;13.30;99.90
42099;DHT22;27758;55.900;8.516;2022-07-06T02:35:30;13.30;99.90
42099;DHT22;27758;55.900;8.516;2022-07-06T02:37:56;13.30;99.90
42099;DHT22;27758;55.900;8.516;2022-07-06T02:40:22;13.40;99.90
42099;DHT22;27758;55.900;8.516;2022-07-06T02:42:48;13.30;99.90
42099;DHT22;27758;55.900;8.516;2022-07-06T02:45:13;13.30;99.90
42099;DHT22;27758;55.900;8.516;2022-07-06T02:47:39;13.30;99.90
42099;DHT22;27758;55.900;8.516;2022-07-06T02:50:06;13.30;99.90
42099;DHT22;27758;55.900;8.516;2022-07-06T02:52:32;13.30;99.90
42099;DHT22;27758;55.900;8.516;2022-07-06T02:54:57;13.30;99.90
42099;DHT22;27758;55.900;8.516;2022-07-06T02:57:23;13.30;99.90
42099;DHT22;27758;55.900;8.516;2022-07-06T02:59:49;13.30;99.90
42099;DHT22;27758;55.900;8.516;2022-07-06T03:02:16;13.20;99.90
42099;DHT22;27758;55.900;8.516;2022-07-06T03:04:42;13.30;99.90
42099;DHT22;27758;55.900;8.516;2022-07-06T03:07:08;13.30;99.90
42099;DHT22;27758;55.900;8.516;2022-07-06T03:09:34;13.30;99.90
42099;DHT22;27758;55.900;8.516;2022-07-06T03:12:00;13.20;99.90
42099;DHT22;27758;55.900;8.516;2022-07-06T03:14:26;13.20;99.90
42099;DHT22;27758;55.900;8.516;2022-07-06T03:16:52;13.10;99.90
42099;DHT22;27758;55.900;8.516;2022-07-06T03:19:19;13.20;99.90
42099;DHT22;27758;55.900;8.516;2022-07-06T03:21:45;13.20;99.90
42099;DHT22;27758;55.900;8.516;2022-07-06T03:24:11;13.20;99.90
42099;DHT22;27758;55.900;8.516;2022-07-06T03:26:37;13.10;99.90
42099;DHT22;27758;55.900;8.516;2022-07-06T03:29:03;13.10;99.90
42099;DHT22;27758;55.900;8.516;2022-07-06T03:31:28;13.10;99.90
42099;DHT22;27758;55.900;8.516;2022-07-06T03:33:54;13.10;99.90
42099;DHT22;27758;55.900;8.516;2022-07-06T03:36:20;13.10;99.90
42099;DHT22;27758;55.900;8.516;2022-07-06T03:38:46;13.00;99.90
42099;DHT22;27758;55.900;8.516;2022-07-06T03:41:12;13.00;99.90
42099;DHT22;27758;55.900;8.516;2022-07-06T03:43:38;13.00;99.90
42099;DHT22;27758;55.900;8.516;2022-07-06T03:46:03;13.00;99.90
42099;DHT22;27758;55.900;8.516;2022-07-06T03:48:29;13.00;99.90
42099;DHT22;27758;55.900;8.516;2022-07-06T03:50:55;13.00;99.90
42099;DHT22;27758;55.900;8.516;2022-07-06T03:53:21;12.90;99.90
42099;DHT22;27758;55.900;8.516;2022-07-06T03:55:47;13.00;99.90
42099;DHT22;27758;55.900;8.516;2022-07-06T03:58:33;13.00;99.90
42099;DHT22;27758;55.900;8.516;2022-07-06T04:00:59;12.90;99.90
42099;DHT22;27758;55.900;8.516;2022-07-06T04:03:25;13.00;99.90
42099;DHT22;27758;55.900;8.516;2022-07-06T04:05:52;12.90;99.90
42099;DHT22;27758;55.900;8.516;2022-07-06T04:08:17;13.00;99.90
42099;DHT22;27758;55.900;8.516;2022-07-06T04:10:43;13.00;99.90
42099;DHT22;27758;55.900;8.516;2022-07-06T04:13:09;13.20;99.90
42099;DHT22;27758;55.900;8.516;2022-07-06T04:15:35;13.20;99.90
42099;DHT22;27758;55.900;8.516;2022-07-06T04:18:01;13.30;99.90
42099;DHT22;27758;55.900;8.516;2022-07-06T04:20:27;13.40;99.90
42099;DHT22;27758;55.900;8.516;2022-07-06T04:22:53;13.60;99.90
42099;DHT22;27758;55.900;8.516;2022-07-06T04:25:19;13.70;99.90
42099;DHT22;27758;55.900;8.516;2022-07-06T04:27:45;13.70;99.90
42099;DHT22;27758;55.900;8.516;2022-07-06T04:30:11;13.80;99.90
42099;DHT22;27758;55.900;8.516;2022-07-06T04:32:37;13.90;99.90
42099;DHT22;27758;55.900;8.516;2022-07-06T04:35:04;14.00;99.90
42099;DHT22;27758;55.900;8.516;2022-07-06T04:37:31;14.00;99.90
42099;DHT22;27758;55.900;8.516;2022-07-06T04:39:57;14.20;99.90
42099;DHT22;27758;55.900;8.516;2022-07-06T04:42:23;14.20;99.90
42099;DHT22;27758;55.900;8.516;2022-07-06T04:44:49;14.30;99.90
42099;DHT22;27758;55.900;8.516;2022-07-06T04:47:17;14.30;99.90
42099;DHT22;27758;55.900;8.516;2022-07-06T04:49:43;14.40;99.90
42099;DHT22;27758;55.900;8.516;2022-07-06T04:52:09;14.50;99.90
42099;DHT22;27758;55.900;8.516;2022-07-06T04:54:35;14.50;99.90
42099;DHT22;27758;55.900;8.516;2022-07-06T04:57:01;14.60;99.90
42099;DHT22;27758;55.900;8.516;2022-07-06T04:59:27;14.60;99.90
42099;DHT22;27758;55.900;8.516;2022-07-06T05:01:53;14.70;99.90
42099;DHT22;27758;55.900;8.516;2022-07-06T05:04:19;14.90;99.90
42099;DHT22;27758;55.900;8.516;2022-07-06T05:06:45;15.00;99.90
42099;DHT22;27758;55.900;8.516;2022-07-06T05:09:12;15.10;99.90
42099;DHT22;27758;55.900;8.516;2022-07-06T05:11:39;15.30;99.90
42099;DHT22;27758;55.900;8.516;2022-07-06T05:14:05;15.40;99.90
42099;DHT22;27758;55.900;8.516;2022-07-06T05:16:31;15.50;99.90
42099;DHT22;27758;55.900;8.516;2022-07-06T05:18:57;15.50;99.90
42099;DHT22;27758;55.900;8.516;2022-07-06T05:21:23;15.60;99.90
42099;DHT22;27758;55.900;8.516;2022-07-06T05:23:49;15.70;99.90
42099;DHT22;27758;55.900;8.516;2022-07-06T05:26:15;15.80;99.90
42099;DHT22;27758;55.900;8.516;2022-07-06T05:28:41;15.90;99.90
42099;DHT22;27758;55.900;8.516;2022-07-06T05:31:07;15.90;99.90
42099;DHT22;27758;55.900;8.516;2022-07-06T05:33:33;16.00;99.90
42099;DHT22;27758;55.900;8.516;2022-07-06T05:35:58;16.00;99.90
42099;DHT22;27758;55.900;8.516;2022-07-06T05:38:24;16.00;99.90
42099;DHT22;27758;55.900;8.516;2022-07-06T05:40:50;16.00;99.90
42099;DHT22;27758;55.900;8.516;2022-07-06T05:43:17;16.10;99.90
42099;DHT22;27758;55.900;8.516;2022-07-06T05:45:43;16.20;99.90
42099;DHT22;27758;55.900;8.516;2022-07-06T05:48:09;16.30;99.90
42099;DHT22;27758;55.900;8.516;2022-07-06T05:50:53;16.40;99.90
42099;DHT22;27758;55.900;8.516;2022-07-06T05:53:19;16.40;99.90
42099;DHT22;27758;55.900;8.516;2022-07-06T05:55:46;16.30;99.90
42099;DHT22;27758;55.900;8.516;2022-07-06T05:58:12;16.20;99.90
42099;DHT22;27758;55.900;8.516;2022-07-06T06:00:38;16.10;99.90
42099;DHT22;27758;55.900;8.516;2022-07-06T06:03:04;16.30;99.90
42099;DHT22;27758;55.900;8.516;2022-07-06T06:05:30;16.40;99.90
42099;DHT22;27758;55.900;8.516;2022-07-06T06:07:56;16.60;99.90
42099;DHT22;27758;55.900;8.516;2022-07-06T06:10:22;16.80;99.90
42099;DHT22;27758;55.900;8.516;2022-07-06T06:12:49;16.80;99.90
42099;DHT22;27758;55.900;8.516;2022-07-06T06:15:15;16.90;99.90
42099;DHT22;27758;55.900;8.516;2022-07-06T06:17:40;16.80;99.90
42099;DHT22;27758;55.900;8.516;2022-07-06T06:20:09;16.60;99.90
42099;DHT22;27758;55.900;8.516;2022-07-06T06:22:52;16.50;99.90
42099;DHT22;27758;55.900;8.516;2022-07-06T06:25:36;16.30;99.90
42099;DHT22;27758;55.900;8.516;2022-07-06T06:28:04;16.30;99.90
42099;DHT22;27758;55.900;8.516;2022-07-06T06:30:30;16.50;99.90
42099;DHT22;27758;55.900;8.516;2022-07-06T06:33:16;16.70;99.90
42099;DHT22;27758;55.900;8.516;2022-07-06T06:35:50;17.20;99.90
42099;DHT22;27758;55.900;8.516;2022-07-06T06:38:19;17.50;99.90
42099;DHT22;27758;55.900;8.516;2022-07-06T06:40:45;17.80;99.90
42099;DHT22;27758;55.900;8.516;2022-07-06T06:43:11;17.50;99.90
42099;DHT22;27758;55.900;8.516;2022-07-06T06:45:37;17.40;99.90
42099;DHT22;27758;55.900;8.516;2022-07-06T06:48:03;17.50;99.90
42099;DHT22;27758;55.900;8.516;2022-07-06T06:50:29;17.80;99.90
42099;DHT22;27758;55.900;8.516;2022-07-06T06:52:56;18.10;99.90
42099;DHT22;27758;55.900;8.516;2022-07-06T06:55:22;18.40;99.90
42099;DHT22;27758;55.900;8.516;2022-07-06T06:57:48;18.60;99.90
42099;DHT22;27758;55.900;8.516;2022-07-06T07:00:14;18.80;99.90
42099;DHT22;27758;55.900;8.516;2022-07-06T07:02:40;18.60;99.90
42099;DHT22;27758;55.900;8.516;2022-07-06T07:05:06;18.40;99.90
42099;DHT22;27758;55.900;8.516;2022-07-06T07:07:32;18.40;99.90
42099;DHT22;27758;55.900;8.516;2022-07-06T07:09:59;18.40;99.90
42099;DHT22;27758;55.900;8.516;2022-07-06T07:12:25;18.40;99.90
42099;DHT22;27758;55.900;8.516;2022-07-06T07:14:51;18.70;99.90
42099;DHT22;27758;55.900;8.516;2022-07-06T07:17:17;18.70;99.90
42099;DHT22;27758;55.900;8.516;2022-07-06T07:19:43;18.40;99.90
42099;DHT22;27758;55.900;8.516;2022-07-06T07:22:09;18.30;99.90
42099;DHT22;27758;55.900;8.516;2022-07-06T07:24:35;18.30;99.90
42099;DHT22;27758;55.900;8.516;2022-07-06T07:27:01;18.40;99.90
42099;DHT22;27758;55.900;8.516;2022-07-06T07:29:26;18.80;99.90
42099;DHT22;27758;55.900;8.516;2022-07-06T07:31:52;19.20;99.90
42099;DHT22;27758;55.900;8.516;2022-07-06T07:34:18;19.30;99.90
42099;DHT22;27758;55.900;8.516;2022-07-06T07:36:44;19.40;99.90
42099;DHT22;27758;55.900;8.516;2022-07-06T07:39:10;19.50;99.90
42099;DHT22;27758;55.900;8.516;2022-07-06T07:41:36;19.60;99.90
42099;DHT22;27758;55.900;8.516;2022-07-06T07:44:02;19.70;99.90
42099;DHT22;27758;55.900;8.516;2022-07-06T07:46:28;19.80;99.90
42099;DHT22;27758;55.900;8.516;2022-07-06T07:48:54;20.20;99.90
42099;DHT22;27758;55.900;8.516;2022-07-06T07:51:20;20.40;99.90
42099;DHT22;27758;55.900;8.516;2022-07-06T07:53:46;20.10;99.90
42099;DHT22;27758;55.900;8.516;2022-07-06T07:56:12;19.70;99.90
42099;DHT22;27758;55.900;8.516;2022-07-06T07:58:38;19.60;99.90
42099;DHT22;27758;55.900;8.516;2022-07-06T08:01:04;19.80;99.90
42099;DHT22;27758;55.900;8.516;2022-07-06T08:03:30;20.30;99.90
42099;DHT22;27758;55.900;8.516;2022-07-06T08:05:57;19.90;99.90
42099;DHT22;27758;55.900;8.516;2022-07-06T08:08:23;19.40;99.90
42099;DHT22;27758;55.900;8.516;2022-07-06T08:10:49;19.50;99.90
42099;DHT22;27758;55.900;8.516;2022-07-06T08:13:15;19.90;99.90
42099;DHT22;27758;55.900;8.516;2022-07-06T08:15:41;20.30;99.90
42099;DHT22;27758;55.900;8.516;2022-07-06T08:18:08;20.40;99.90
42099;DHT22;27758;55.900;8.516;2022-07-06T08:20:36;20.40;99.90
42099;DHT22;27758;55.900;8.516;2022-07-06T08:23:02;20.70;99.90
42099;DHT22;27758;55.900;8.516;2022-07-06T08:25:28;21.00;99.90
42099;DHT22;27758;55.900;8.516;2022-07-06T08:27:54;20.90;99.90
42099;DHT22;27758;55.900;8.516;2022-07-06T08:30:20;20.70;99.90
42099;DHT22;27758;55.900;8.516;2022-07-06T08:32:46;20.70;99.90
42099;DHT22;27758;55.900;8.516;2022-07-06T08:35:12;20.80;99.90
42099;DHT22;27758;55.900;8.516;2022-07-06T08:37:38;20.90;99.90
42099;DHT22;27758;55.900;8.516;2022-07-06T08:40:06;21.00;99.90
42099;DHT22;27758;55.900;8.516;2022-07-06T08:42:33;20.60;99.90
42099;DHT22;27758;55.900;8.516;2022-07-06T08:45:02;20.40;99.90
42099;DHT22;27758;55.900;8.516;2022-07-06T08:47:29;20.60;99.90
42099;DHT22;27758;55.900;8.516;2022-07-06T08:49:56;21.00;99.90
42099;DHT22;27758;55.900;8.516;2022-07-06T08:52:25;20.90;99.90
42099;DHT22;27758;55.900;8.516;2022-07-06T08:54:51;20.70;99.90
42099;DHT22;27758;55.900;8.516;2022-07-06T08:57:18;20.70;99.90
42099;DHT22;27758;55.900;8.516;2022-07-06T08:59:44;20.90;99.90
42099;DHT22;27758;55.900;8.516;2022-07-06T09:02:11;21.40;99.90
42099;DHT22;27758;55.900;8.516;2022-07-06T09:04:37;21.40;99.90
42099;DHT22;27758;55.900;8.516;2022-07-06T09:07:04;21.10;99.90
42099;DHT22;27758;55.900;8.516;2022-07-06T09:09:30;21.20;99.90
42099;DHT22;27758;55.900;8.516;2022-07-06T09:11:57;21.40;99.90
42099;DHT22;27758;55.900;8.516;2022-07-06T09:14:23;21.90;99.90
42099;DHT22;27758;55.900;8.516;2022-07-06T09:17:05;22.20;99.90
42099;DHT22;27758;55.900;8.516;2022-07-06T09:19:34;22.20;99.90
42099;DHT22;27758;55.900;8.516;2022-07-06T09:22:01;22.20;99.90
42099;DHT22;27758;55.900;8.516;2022-07-06T09:24:27;22.40;99.90
42099;DHT22;27758;55.900;8.516;2022-07-06T09:26:57;22.50;99.90
42099;DHT22;27758;55.900;8.516;2022-07-06T09:29:29;22.50;99.90
42099;DHT22;27758;55.900;8.516;2022-07-06T09:31:56;22.10;99.50
42099;DHT22;27758;55.900;8.516;2022-07-06T09:34:23;21.90;99.90
42099;DHT22;27758;55.900;8.516;2022-07-06T09:36:50;22.10;99.90
42099;DHT22;27758;55.900;8.516;2022-07-06T09:39:29;22.20;99.90
42099;DHT22;27758;55.900;8.516;2022-07-06T09:42:00;22.10;99.90
42099;DHT22;27758;55.900;8.516;2022-07-06T09:44:30;22.20;99.90
42099;DHT22;27758;55.900;8.516;2022-07-06T09:46:59;22.50;99.90
42099;DHT22;27758;55.900;8.516;2022-07-06T09:49:25;22.30;99.90
42099;DHT22;27758;55.900;8.516;2022-07-06T09:51:53;22.10;99.90
42099;DHT22;27758;55.900;8.516;2022-07-06T09:54:19;22.10;99.90
42099;DHT22;27758;55.900;8.516;2022-07-06T09:56:47;22.30;99.90
42099;DHT22;27758;55.900;8.516;2022-07-06T09:59:23;22.40;99.10
42099;DHT22;27758;55.900;8.516;2022-07-06T10:01:54;22.20;99.90
42099;DHT22;27758;55.900;8.516;2022-07-06T10:04:21;22.40;99.90
42099;DHT22;27758;55.900;8.516;2022-07-06T10:06:49;22.60;99.90
42099;DHT22;27758;55.900;8.516;2022-07-06T10:09:15;22.70;99.90
42099;DHT22;27758;55.900;8.516;2022-07-06T10:11:45;22.30;99.90
42099;DHT22;27758;55.900;8.516;2022-07-06T10:14:16;22.50;99.90
42099;DHT22;27758;55.900;8.516;2022-07-06T10:16:43;22.80;99.30
42099;DHT22;27758;55.900;8.516;2022-07-06T10:19:11;22.90;99.70
42099;DHT22;27758;55.900;8.516;2022-07-06T10:21:38;23.10;99.70
42099;DHT22;27758;55.900;8.516;2022-07-06T10:24:08;23.00;99.90
42099;DHT22;27758;55.900;8.516;2022-07-06T10:26:35;22.70;99.90
42099;DHT22;27758;55.900;8.516;2022-07-06T10:29:03;23.00;99.90
42099;DHT22;27758;55.900;8.516;2022-07-06T10:31:29;22.70;99.90
42099;DHT22;27758;55.900;8.516;2022-07-06T10:33:57;22.60;99.90
42099;DHT22;27758;55.900;8.516;2022-07-06T10:36:25;23.20;99.90
42099;DHT22;27758;55.900;8.516;2022-07-06T10:38:52;23.50;99.60
42099;DHT22;27758;55.900;8.516;2022-07-06T10:41:30;23.40;99.90
42099;DHT22;27758;55.900;8.516;2022-07-06T10:43:57;23.40;99.90
42099;DHT22;27758;55.900;8.516;2022-07-06T10:46:27;23.00;99.90
42099;DHT22;27758;55.900;8.516;2022-07-06T10:48:54;22.80;99.90
42099;DHT22;27758;55.900;8.516;2022-07-06T10:51:28;22.60;99.90
42099;DHT22;27758;55.900;8.516;2022-07-06T10:53:59;22.50;99.90
42099;DHT22;27758;55.900;8.516;2022-07-06T10:56:44;22.10;99.90
42099;DHT22;27758;55.900;8.516;2022-07-06T10:59:16;22.40;99.90
42099;DHT22;27758;55.900;8.516;2022-07-06T11:02:18;22.30;99.90
42099;DHT22;27758;55.900;8.516;2022-07-06T11:04:47;21.90;99.90
42099;DHT22;27758;55.900;8.516;2022-07-06T11:07:17;22.10;99.90
42099;DHT22;27758;55.900;8.516;2022-07-06T11:09:57;22.30;99.80
42099;DHT22;27758;55.900;8.516;2022-07-06T11:12:24;22.10;99.90
42099;DHT22;27758;55.900;8.516;2022-07-06T11:14:52;22.00;99.90
42099;DHT22;27758;55.900;8.516;2022-07-06T11:17:19;21.80;99.90
42099;DHT22;27758;55.900;8.516;2022-07-06T11:19:56;21.70;99.90
42099;DHT22;27758;55.900;8.516;2022-07-06T11:22:23;22.20;99.90
42099;DHT22;27758;55.900;8.516;2022-07-06T11:24:53;22.60;99.90
42099;DHT22;27758;55.900;8.516;2022-07-06T11:27:23;23.20;99.90
42099;DHT22;27758;55.900;8.516;2022-07-06T11:29:49;23.00;99.70
42099;DHT22;27758;55.900;8.516;2022-07-06T11:32:14;23.10;99.90
42099;DHT22;27758;55.900;8.516;2022-07-06T11:34:42;23.10;99.70
42099;DHT22;27758;55.900;8.516;2022-07-06T11:37:13;22.70;99.90
42099;DHT22;27758;55.900;8.516;2022-07-06T11:39:41;22.90;99.90
42099;DHT22;27758;55.900;8.516;2022-07-06T11:42:12;22.80;99.30
42099;DHT22;27758;55.900;8.516;2022-07-06T11:44:39;22.30;99.90
42099;DHT22;27758;55.900;8.516;2022-07-06T11:47:06;22.00;99.90
42099;DHT22;27758;55.900;8.516;2022-07-06T11:49:33;21.80;99.90
42099;DHT22;27758;55.900;8.516;2022-07-06T11:52:04;22.20;99.90
42099;DHT22;27758;55.900;8.516;2022-07-06T11:54:32;22.30;99.90
42099;DHT22;27758;55.900;8.516;2022-07-06T11:56:59;21.90;99.80
42099;DHT22;27758;55.900;8.516;2022-07-06T11:59:27;21.80;99.80
42099;DHT22;27758;55.900;8.516;2022-07-06T12:02:03;21.70;99.90
42099;DHT22;27758;55.900;8.516;2022-07-06T12:04:31;22.00;99.90
42099;DHT22;27758;55.900;8.516;2022-07-06T12:07:01;22.50;99.90
42099;DHT22;27758;55.900;8.516;2022-07-06T12:09:35;22.80;99.80
42099;DHT22;27758;55.900;8.516;2022-07-06T12:12:03;22.80;99.90
42099;DHT22;27758;55.900;8.516;2022-07-06T12:14:31;22.40;99.90
42099;DHT22;27758;55.900;8.516;2022-07-06T12:17:03;22.10;99.90
42099;DHT22;27758;55.900;8.516;2022-07-06T12:19:29;21.80;99.90
42099;DHT22;27758;55.900;8.516;2022-07-06T12:21:55;21.80;99.90
42099;DHT22;27758;55.900;8.516;2022-07-06T12:24:25;21.60;99.90
42099;DHT22;27758;55.900;8.516;2022-07-06T12:26:52;21.40;99.90
42099;DHT22;27758;55.900;8.516;2022-07-06T12:29:19;21.30;99.90
42099;DHT22;27758;55.900;8.516;2022-07-06T12:31:51;21.20;99.90
42099;DHT22;27758;55.900;8.516;2022-07-06T12:34:28;21.10;99.90
42099;DHT22;27758;55.900;8.516;2022-07-06T12:37:06;20.90;99.90
42099;DHT22;27758;55.900;8.516;2022-07-06T12:39:39;21.00;99.90
42099;DHT22;27758;55.900;8.516;2022-07-06T12:42:06;20.60;99.90
42099;DHT22;27758;55.900;8.516;2022-07-06T12:44:32;20.40;99.90
42099;DHT22;27758;55.900;8.516;2022-07-06T12:47:05;20.10;99.90
42099;DHT22;27758;55.900;8.516;2022-07-06T12:49:32;20.00;99.90
42099;DHT22;27758;55.900;8.516;2022-07-06T12:54:35;19.80;99.90
42099;DHT22;27758;55.900;8.516;2022-07-06T12:57:06;19.60;99.90
42099;DHT22;27758;55.900;8.516;2022-07-06T13:02:07;19.30;99.90
42099;DHT22;27758;55.900;8.516;2022-07-06T13:04:35;19.30;99.90
42099;DHT22;27758;55.900;8.516;2022-07-06T13:07:02;19.10;99.90
42099;DHT22;27758;55.900;8.516;2022-07-06T13:09:29;18.90;99.90
42099;DHT22;27758;55.900;8.516;2022-07-06T13:11:56;18.80;99.90
42099;DHT22;27758;55.900;8.516;2022-07-06T13:14:22;18.80;99.90
42099;DHT22;27758;55.900;8.516;2022-07-06T13:16:48;18.90;99.90
42099;DHT22;27758;55.900;8.516;2022-07-06T13:19:14;18.80;99.90
42099;DHT22;27758;55.900;8.516;2022-07-06T13:21:40;18.80;99.90
42099;DHT22;27758;55.900;8.516;2022-07-06T13:24:07;18.70;99.90
42099;DHT22;27758;55.900;8.516;2022-07-06T13:26:33;18.80;99.90
42099;DHT22;27758;55.900;8.516;2022-07-06T13:29:03;18.80;99.90
42099;DHT22;27758;55.900;8.516;2022-07-06T13:31:30;18.90;99.90
42099;DHT22;27758;55.900;8.516;2022-07-06T13:33:56;18.80;99.90
42099;DHT22;27758;55.900;8.516;2022-07-06T13:36:25;18.90;99.90
42099;DHT22;27758;55.900;8.516;2022-07-06T13:38:51;18.90;99.90
42099;DHT22;27758;55.900;8.516;2022-07-06T13:41:17;18.80;99.90
42099;DHT22;27758;55.900;8.516;2022-07-06T13:43:42;18.70;99.90
42099;DHT22;27758;55.900;8.516;2022-07-06T13:46:08;18.70;99.90
42099;DHT22;27758;55.900;8.516;2022-07-06T13:48:36;18.90;99.90
42099;DHT22;27758;55.900;8.516;2022-07-06T13:51:03;19.10;99.90
42099;DHT22;27758;55.900;8.516;2022-07-06T13:53:28;18.90;99.90
42099;DHT22;27758;55.900;8.516;2022-07-06T13:55:56;19.10;99.90
42099;DHT22;27758;55.900;8.516;2022-07-06T13:58:22;19.00;99.90
42099;DHT22;27758;55.900;8.516;2022-07-06T14:00:48;19.00;99.90
42099;DHT22;27758;55.900;8.516;2022-07-06T14:03:14;18.90;99.90
42099;DHT22;27758;55.900;8.516;2022-07-06T14:05:40;18.80;99.90
42099;DHT22;27758;55.900;8.516;2022-07-06T14:08:06;18.80;99.90
42099;DHT22;27758;55.900;8.516;2022-07-06T14:10:32;18.60;99.90
42099;DHT22;27758;55.900;8.516;2022-07-06T14:12:59;18.30;99.90
42099;DHT22;27758;55.900;8.516;2022-07-06T14:15:25;18.20;99.90
42099;DHT22;27758;55.900;8.516;2022-07-06T14:17:51;17.90;99.90
42099;DHT22;27758;55.900;8.516;2022-07-06T14:20:17;18.00;99.90
42099;DHT22;27758;55.900;8.516;2022-07-06T14:22:44;18.00;99.90
42099;DHT22;27758;55.900;8.516;2022-07-06T14:25:10;18.00;99.90
42099;DHT22;27758;55.900;8.516;2022-07-06T14:27:36;18.00;99.90
42099;DHT22;27758;55.900;8.516;2022-07-06T14:30:03;18.10;99.90
42099;DHT22;27758;55.900;8.516;2022-07-06T14:32:29;18.10;99.90
42099;DHT22;27758;55.900;8.516;2022-07-06T14:34:55;18.10;99.90
42099;DHT22;27758;55.900;8.516;2022-07-06T14:37:21;18.00;99.90
42099;DHT22;27758;55.900;8.516;2022-07-06T14:39:47;17.90;99.90
42099;DHT22;27758;55.900;8.516;2022-07-06T14:42:14;17.90;99.90
42099;DHT22;27758;55.900;8.516;2022-07-06T14:44:40;17.80;99.90
42099;DHT22;27758;55.900;8.516;2022-07-06T14:47:06;17.80;99.90
42099;DHT22;27758;55.900;8.516;2022-07-06T14:49:32;17.80;99.90
42099;DHT22;27758;55.900;8.516;2022-07-06T14:51:58;17.80;99.90
42099;DHT22;27758;55.900;8.516;2022-07-06T14:54:24;17.80;99.90
42099;DHT22;27758;55.900;8.516;2022-07-06T14:56:51;17.70;99.90
42099;DHT22;27758;55.900;8.516;2022-07-06T14:59:17;17.60;99.90
42099;DHT22;27758;55.900;8.516;2022-07-06T15:01:43;17.60;99.90
42099;DHT22;27758;55.900;8.516;2022-07-06T15:04:10;17.70;99.90
42099;DHT22;27758;55.900;8.516;2022-07-06T15:06:36;17.60;99.90
42099;DHT22;27758;55.900;8.516;2022-07-06T15:09:03;17.60;99.90
42099;DHT22;27758;55.900;8.516;2022-07-06T15:11:33;17.60;99.90
42099;DHT22;27758;55.900;8.516;2022-07-06T15:13:59;17.50;99.90
42099;DHT22;27758;55.900;8.516;2022-07-06T15:16:25;17.40;99.90
42099;DHT22;27758;55.900;8.516;2022-07-06T15:18:52;17.30;99.90
42099;DHT22;27758;55.900;8.516;2022-07-06T15:21:18;17.10;99.90
42099;DHT22;27758;55.900;8.516;2022-07-06T15:23:44;16.90;99.90
42099;DHT22;27758;55.900;8.516;2022-07-06T15:26:10;16.80;99.90
42099;DHT22;27758;55.900;8.516;2022-07-06T15:28:36;16.60;99.90
42099;DHT22;27758;55.900;8.516;2022-07-06T15:31:02;16.60;99.90
42099;DHT22;27758;55.900;8.516;2022-07-06T15:33:28;16.50;99.90
42099;DHT22;27758;55.900;8.516;2022-07-06T15:35:54;16.40;99.90